sensor_id;sensor_type;location;lat;lon;timestamp;P1;durP1;ratioP1;P2;durP2;ratioP2
11447;SDS011;43755;49.736;8.734;2022-12-29T00:01:00;2.25;;;1.30;;
11447;SDS011;43755;49.736;8.734;2022-12-29T00:03:02;2.63;;;1.58;;
11447;SDS011;43755;49.736;8.734;2022-12-29T00:05:03;3.40;;;2.10;;
11447;SDS011;43755;49.736;8.734;2022-12-29T00:07:05;1.63;;;1.50;;
11447;SDS011;43755;49.736;8.734;2022-12-29T00:09:07;1.63;;;1.40;;
11447;SDS011;43755;49.736;8.734;2022-12-29T00:11:10;3.00;;;1.67;;
11447;SDS011;43755;49.736;8.734;2022-12-29T00:13:12;1.90;;;1.70;;
11447;SDS011;43755;49.736;8.734;2022-12-29T00:15:37;2.08;;;1.60;;
11447;SDS011;43755;49.736;8.734;2022-12-29T00:17:40;1.70;;;1.60;;
11447;SDS011;43755;49.736;8.734;2022-12-29T00:19:41;2.10;;;1.35;;
11447;SDS011;43755;49.736;8.734;2022-12-29T00:22:00;2.20;;;1.40;;
11447;SDS011;43755;49.736;8.734;2022-12-29T00:24:20;3.30;;;1.75;;
11447;SDS011;43755;49.736;8.734;2022-12-29T00:26:40;2.85;;;1.63;;
11447;SDS011;43755;49.736;8.734;2022-12-29T00:28:59;1.52;;;1.42;;
11447;SDS011;43755;49.736;8.734;2022-12-29T00:31:18;3.15;;;1.40;;
11447;SDS011;43755;49.736;8.734;2022-12-29T00:33:38;2.10;;;1.40;;
11447;SDS011;43755;49.736;8.734;2022-12-29T00:35:57;1.77;;;1.52;;
11447;SDS011;43755;49.736;8.734;2022-12-29T00:38:02;1.80;;;1.63;;
11447;SDS011;43755;49.736;8.734;2022-12-29T00:40:24;1.50;;;1.40;;
11447;SDS011;43755;49.736;8.734;2022-12-29T00:42:43;2.95;;;1.60;;
11447;SDS011;43755;49.736;8.734;2022-12-29T00:45:02;2.88;;;1.70;;
11447;SDS011;43755;49.736;8.734;2022-12-29T00:47:04;1.80;;;1.52;;
11447;SDS011;43755;49.736;8.734;2022-12-29T00:49:08;2.92;;;1.80;;
11447;SDS011;43755;49.736;8.734;2022-12-29T00:51:28;1.70;;;1.60;;
11447;SDS011;43755;49.736;8.734;2022-12-29T00:53:29;2.63;;;1.75;;
11447;SDS011;43755;49.736;8.734;2022-12-29T00:55:31;2.08;;;1.58;;
11447;SDS011;43755;49.736;8.734;2022-12-29T00:57:32;2.17;;;1.65;;
11447;SDS011;43755;49.736;8.734;2022-12-29T00:59:34;2.50;;;1.77;;
11447;SDS011;43755;49.736;8.734;2022-12-29T01:01:36;2.10;;;1.52;;
11447;SDS011;43755;49.736;8.734;2022-12-29T01:03:38;2.08;;;1.45;;
11447;SDS011;43755;49.736;8.734;2022-12-29T01:05:41;2.55;;;1.63;;
11447;SDS011;43755;49.736;8.734;2022-12-29T01:07:43;2.00;;;1.80;;
11447;SDS011;43755;49.736;8.734;2022-12-29T01:09:44;1.67;;;1.40;;
11447;SDS011;43755;49.736;8.734;2022-12-29T01:12:03;4.07;;;1.75;;
11447;SDS011;43755;49.736;8.734;2022-12-29T01:14:05;2.00;;;1.52;;
11447;SDS011;43755;49.736;8.734;2022-12-29T01:16:07;1.88;;;1.70;;
11447;SDS011;43755;49.736;8.734;2022-12-29T01:18:09;3.78;;;1.40;;
11447;SDS011;43755;49.736;8.734;2022-12-29T01:20:11;1.90;;;1.73;;
11447;SDS011;43755;49.736;8.734;2022-12-29T01:22:14;1.90;;;1.70;;
11447;SDS011;43755;49.736;8.734;2022-12-29T01:24:15;2.28;;;1.65;;
11447;SDS011;43755;49.736;8.734;2022-12-29T01:26:18;2.28;;;1.52;;
11447;SDS011;43755;49.736;8.734;2022-12-29T01:28:19;1.98;;;1.35;;
11447;SDS011;43755;49.736;8.734;2022-12-29T01:30:21;1.88;;;1.60;;
11447;SDS011;43755;49.736;8.734;2022-12-29T01:32:22;1.83;;;1.60;;
11447;SDS011;43755;49.736;8.734;2022-12-29T01:34:23;3.47;;;1.70;;
11447;SDS011;43755;49.736;8.734;2022-12-29T01:36:25;2.13;;;1.23;;
11447;SDS011;43755;49.736;8.734;2022-12-29T01:38:28;2.20;;;1.70;;
11447;SDS011;43755;49.736;8.734;2022-12-29T01:40:29;1.80;;;1.48;;
11447;SDS011;43755;49.736;8.734;2022-12-29T01:42:30;3.20;;;1.60;;
11447;SDS011;43755;49.736;8.734;2022-12-29T01:44:39;2.65;;;1.60;;
11447;SDS011;43755;49.736;8.734;2022-12-29T01:46:49;1.50;;;1.33;;
11447;SDS011;43755;49.736;8.734;2022-12-29T01:48:52;1.60;;;1.50;;
11447;SDS011;43755;49.736;8.734;2022-12-29T01:50:56;1.88;;;1.60;;
11447;SDS011;43755;49.736;8.734;2022-12-29T01:52:59;2.10;;;1.55;;
11447;SDS011;43755;49.736;8.734;2022-12-29T01:55:05;2.25;;;1.48;;
11447;SDS011;43755;49.736;8.734;2022-12-29T01:57:09;1.52;;;1.30;;
11447;SDS011;43755;49.736;8.734;2022-12-29T01:59:14;2.15;;;1.50;;
11447;SDS011;43755;49.736;8.734;2022-12-29T02:01:19;3.15;;;1.40;;
11447;SDS011;43755;49.736;8.734;2022-12-29T02:03:22;2.85;;;1.50;;
11447;SDS011;43755;49.736;8.734;2022-12-29T02:05:27;1.52;;;1.27;;
11447;SDS011;43755;49.736;8.734;2022-12-29T02:07:33;2.85;;;1.40;;
11447;SDS011;43755;49.736;8.734;2022-12-29T02:09:35;4.25;;;1.40;;
11447;SDS011;43755;49.736;8.734;2022-12-29T02:11:38;1.05;;;1.00;;
11447;SDS011;43755;49.736;8.734;2022-12-29T02:13:39;2.22;;;1.30;;
11447;SDS011;43755;49.736;8.734;2022-12-29T02:15:44;1.65;;;1.30;;
11447;SDS011;43755;49.736;8.734;2022-12-29T02:17:59;1.30;;;1.02;;
11447;SDS011;43755;49.736;8.734;2022-12-29T02:22:48;3.42;;;1.10;;
11447;SDS011;43755;49.736;8.734;2022-12-29T02:25:16;1.20;;;1.10;;
11447;SDS011;43755;49.736;8.734;2022-12-29T02:27:49;1.42;;;0.90;;
11447;SDS011;43755;49.736;8.734;2022-12-29T02:30:02;2.17;;;1.02;;
11447;SDS011;43755;49.736;8.734;2022-12-29T02:32:09;0.93;;;0.90;;
11447;SDS011;43755;49.736;8.734;2022-12-29T02:34:19;1.25;;;1.15;;
11447;SDS011;43755;49.736;8.734;2022-12-29T02:36:29;1.98;;;1.10;;
11447;SDS011;43755;49.736;8.734;2022-12-29T02:38:42;1.10;;;1.10;;
11447;SDS011;43755;49.736;8.734;2022-12-29T02:40:53;1.58;;;1.02;;
11447;SDS011;43755;49.736;8.734;2022-12-29T02:43:01;1.33;;;1.20;;
11447;SDS011;43755;49.736;8.734;2022-12-29T02:45:11;1.15;;;1.05;;
11447;SDS011;43755;49.736;8.734;2022-12-29T02:47:20;2.33;;;1.30;;
11447;SDS011;43755;49.736;8.734;2022-12-29T02:49:26;1.25;;;1.00;;
11447;SDS011;43755;49.736;8.734;2022-12-29T02:51:37;1.10;;;1.00;;
11447;SDS011;43755;49.736;8.734;2022-12-29T02:53:44;1.08;;;0.90;;
11447;SDS011;43755;49.736;8.734;2022-12-29T02:56:04;1.15;;;0.90;;
11447;SDS011;43755;49.736;8.734;2022-12-29T02:58:12;1.67;;;1.02;;
11447;SDS011;43755;49.736;8.734;2022-12-29T03:00:17;2.45;;;0.93;;
11447;SDS011;43755;49.736;8.734;2022-12-29T03:04:50;1.83;;;1.08;;
11447;SDS011;43755;49.736;8.734;2022-12-29T03:07:04;1.13;;;1.10;;
11447;SDS011;43755;49.736;8.734;2022-12-29T03:09:11;1.02;;;1.02;;
11447;SDS011;43755;49.736;8.734;2022-12-29T03:11:21;1.02;;;1.00;;
11447;SDS011;43755;49.736;8.734;2022-12-29T03:13:47;1.10;;;1.10;;
11447;SDS011;43755;49.736;8.734;2022-12-29T03:16:12;2.85;;;1.05;;
11447;SDS011;43755;49.736;8.734;2022-12-29T03:18:21;1.38;;;1.00;;
11447;SDS011;43755;49.736;8.734;2022-12-29T03:20:26;1.40;;;1.05;;
11447;SDS011;43755;49.736;8.734;2022-12-29T03:22:37;1.25;;;1.10;;
11447;SDS011;43755;49.736;8.734;2022-12-29T03:24:44;1.30;;;1.20;;
11447;SDS011;43755;49.736;8.734;2022-12-29T03:26:48;1.60;;;1.00;;
11447;SDS011;43755;49.736;8.734;2022-12-29T03:28:52;1.55;;;1.20;;
11447;SDS011;43755;49.736;8.734;2022-12-29T03:30:57;1.45;;;0.90;;
11447;SDS011;43755;49.736;8.734;2022-12-29T03:33:01;2.05;;;1.20;;
11447;SDS011;43755;49.736;8.734;2022-12-29T03:35:08;2.08;;;1.20;;
11447;SDS011;43755;49.736;8.734;2022-12-29T03:37:13;1.88;;;1.20;;
11447;SDS011;43755;49.736;8.734;2022-12-29T03:39:18;1.52;;;1.27;;
11447;SDS011;43755;49.736;8.734;2022-12-29T03:41:24;3.05;;;1.23;;
11447;SDS011;43755;49.736;8.734;2022-12-29T03:43:29;2.13;;;1.10;;
11447;SDS011;43755;49.736;8.734;2022-12-29T03:45:31;1.08;;;1.00;;
11447;SDS011;43755;49.736;8.734;2022-12-29T03:47:33;2.83;;;1.40;;
11447;SDS011;43755;49.736;8.734;2022-12-29T03:49:34;2.50;;;1.20;;
11447;SDS011;43755;49.736;8.734;2022-12-29T03:51:37;2.35;;;1.30;;
11447;SDS011;43755;49.736;8.734;2022-12-29T03:53:38;1.40;;;1.20;;
11447;SDS011;43755;49.736;8.734;2022-12-29T03:55:40;1.30;;;1.20;;
11447;SDS011;43755;49.736;8.734;2022-12-29T03:57:42;1.40;;;1.30;;
11447;SDS011;43755;49.736;8.734;2022-12-29T03:59:43;3.28;;;1.50;;
11447;SDS011;43755;49.736;8.734;2022-12-29T04:01:44;3.28;;;1.40;;
11447;SDS011;43755;49.736;8.734;2022-12-29T04:03:46;3.90;;;1.52;;
11447;SDS011;43755;49.736;8.734;2022-12-29T04:05:50;1.55;;;1.30;;
11447;SDS011;43755;49.736;8.734;2022-12-29T04:07:53;1.60;;;1.27;;
11447;SDS011;43755;49.736;8.734;2022-12-29T04:09:54;1.77;;;1.20;;
11447;SDS011;43755;49.736;8.734;2022-12-29T04:11:56;1.23;;;1.05;;
11447;SDS011;43755;49.736;8.734;2022-12-29T04:13:57;1.40;;;1.30;;
11447;SDS011;43755;49.736;8.734;2022-12-29T04:15:59;1.80;;;1.25;;
11447;SDS011;43755;49.736;8.734;2022-12-29T04:18:00;1.77;;;1.23;;
11447;SDS011;43755;49.736;8.734;2022-12-29T04:20:01;1.25;;;1.25;;
11447;SDS011;43755;49.736;8.734;2022-12-29T04:22:17;1.98;;;1.10;;
11447;SDS011;43755;49.736;8.734;2022-12-29T04:24:20;1.27;;;1.13;;
11447;SDS011;43755;49.736;8.734;2022-12-29T04:26:21;1.60;;;1.50;;
11447;SDS011;43755;49.736;8.734;2022-12-29T04:28:23;1.52;;;1.42;;
11447;SDS011;43755;49.736;8.734;2022-12-29T04:30:24;1.40;;;1.30;;
11447;SDS011;43755;49.736;8.734;2022-12-29T04:32:26;1.92;;;1.40;;
11447;SDS011;43755;49.736;8.734;2022-12-29T04:34:27;1.50;;;1.38;;
11447;SDS011;43755;49.736;8.734;2022-12-29T04:36:29;1.58;;;1.20;;
11447;SDS011;43755;49.736;8.734;2022-12-29T04:38:30;2.28;;;1.30;;
11447;SDS011;43755;49.736;8.734;2022-12-29T04:40:33;2.05;;;1.30;;
11447;SDS011;43755;49.736;8.734;2022-12-29T04:42:34;1.50;;;1.40;;
11447;SDS011;43755;49.736;8.734;2022-12-29T04:44:36;2.33;;;1.50;;
11447;SDS011;43755;49.736;8.734;2022-12-29T04:46:37;2.67;;;1.42;;
11447;SDS011;43755;49.736;8.734;2022-12-29T04:48:38;2.38;;;1.30;;
11447;SDS011;43755;49.736;8.734;2022-12-29T04:50:40;1.77;;;1.17;;
11447;SDS011;43755;49.736;8.734;2022-12-29T04:52:42;1.38;;;1.08;;
11447;SDS011;43755;49.736;8.734;2022-12-29T04:54:44;1.20;;;1.10;;
11447;SDS011;43755;49.736;8.734;2022-12-29T04:56:46;3.55;;;1.38;;
11447;SDS011;43755;49.736;8.734;2022-12-29T04:58:48;1.23;;;1.13;;
11447;SDS011;43755;49.736;8.734;2022-12-29T05:00:49;1.50;;;1.30;;
11447;SDS011;43755;49.736;8.734;2022-12-29T05:02:51;3.05;;;1.30;;
11447;SDS011;43755;49.736;8.734;2022-12-29T05:04:53;2.58;;;1.50;;
11447;SDS011;43755;49.736;8.734;2022-12-29T05:06:54;1.58;;;1.23;;
11447;SDS011;43755;49.736;8.734;2022-12-29T05:08:55;1.02;;;1.02;;
11447;SDS011;43755;49.736;8.734;2022-12-29T05:10:57;1.27;;;1.15;;
11447;SDS011;43755;49.736;8.734;2022-12-29T05:13:00;2.58;;;1.40;;
11447;SDS011;43755;49.736;8.734;2022-12-29T05:15:01;1.92;;;1.25;;
11447;SDS011;43755;49.736;8.734;2022-12-29T05:17:03;1.30;;;1.20;;
11447;SDS011;43755;49.736;8.734;2022-12-29T05:19:04;1.23;;;1.13;;
11447;SDS011;43755;49.736;8.734;2022-12-29T05:21:06;1.35;;;1.17;;
11447;SDS011;43755;49.736;8.734;2022-12-29T05:23:07;1.42;;;1.20;;
11447;SDS011;43755;49.736;8.734;2022-12-29T05:25:09;1.27;;;1.17;;
11447;SDS011;43755;49.736;8.734;2022-12-29T05:27:11;2.92;;;1.45;;
11447;SDS011;43755;49.736;8.734;2022-12-29T05:29:13;0.98;;;0.98;;
11447;SDS011;43755;49.736;8.734;2022-12-29T05:31:15;1.23;;;1.00;;
11447;SDS011;43755;49.736;8.734;2022-12-29T05:33:16;2.88;;;1.40;;
11447;SDS011;43755;49.736;8.734;2022-12-29T05:35:18;2.80;;;1.20;;
11447;SDS011;43755;49.736;8.734;2022-12-29T05:37:20;2.25;;;1.13;;
11447;SDS011;43755;49.736;8.734;2022-12-29T05:39:21;1.20;;;1.10;;
11447;SDS011;43755;49.736;8.734;2022-12-29T05:41:23;1.60;;;1.17;;
11447;SDS011;43755;49.736;8.734;2022-12-29T05:43:24;1.88;;;1.10;;
11447;SDS011;43755;49.736;8.734;2022-12-29T05:45:27;2.45;;;1.23;;
11447;SDS011;43755;49.736;8.734;2022-12-29T05:47:28;1.52;;;1.25;;
11447;SDS011;43755;49.736;8.734;2022-12-29T05:49:30;1.60;;;1.10;;
11447;SDS011;43755;49.736;8.734;2022-12-29T05:51:32;1.35;;;1.20;;
11447;SDS011;43755;49.736;8.734;2022-12-29T05:53:33;1.25;;;1.00;;
11447;SDS011;43755;49.736;8.734;2022-12-29T05:55:35;2.25;;;1.10;;
11447;SDS011;43755;49.736;8.734;2022-12-29T05:57:36;1.38;;;1.27;;
11447;SDS011;43755;49.736;8.734;2022-12-29T05:59:38;1.67;;;1.10;;
11447;SDS011;43755;49.736;8.734;2022-12-29T06:01:40;1.30;;;1.20;;
11447;SDS011;43755;49.736;8.734;2022-12-29T06:03:42;2.25;;;1.20;;
11447;SDS011;43755;49.736;8.734;2022-12-29T06:05:44;1.88;;;1.10;;
11447;SDS011;43755;49.736;8.734;2022-12-29T06:07:45;1.33;;;1.23;;
11447;SDS011;43755;49.736;8.734;2022-12-29T06:09:47;1.20;;;1.15;;
11447;SDS011;43755;49.736;8.734;2022-12-29T06:11:48;1.50;;;1.40;;
11447;SDS011;43755;49.736;8.734;2022-12-29T06:13:50;1.30;;;1.13;;
11447;SDS011;43755;49.736;8.734;2022-12-29T06:15:51;2.30;;;1.23;;
11447;SDS011;43755;49.736;8.734;2022-12-29T06:17:54;1.67;;;1.30;;
11447;SDS011;43755;49.736;8.734;2022-12-29T06:19:55;2.38;;;1.10;;
11447;SDS011;43755;49.736;8.734;2022-12-29T06:21:56;1.83;;;1.35;;
11447;SDS011;43755;49.736;8.734;2022-12-29T06:23:58;1.45;;;1.00;;
11447;SDS011;43755;49.736;8.734;2022-12-29T06:25:59;1.23;;;1.10;;
11447;SDS011;43755;49.736;8.734;2022-12-29T06:28:00;1.30;;;1.20;;
11447;SDS011;43755;49.736;8.734;2022-12-29T06:30:03;2.72;;;1.25;;
11447;SDS011;43755;49.736;8.734;2022-12-29T06:32:04;1.80;;;1.05;;
11447;SDS011;43755;49.736;8.734;2022-12-29T06:34:07;1.50;;;1.40;;
11447;SDS011;43755;49.736;8.734;2022-12-29T06:36:09;1.95;;;1.40;;
11447;SDS011;43755;49.736;8.734;2022-12-29T06:38:10;1.27;;;1.17;;
11447;SDS011;43755;49.736;8.734;2022-12-29T06:40:11;1.58;;;1.30;;
11447;SDS011;43755;49.736;8.734;2022-12-29T06:42:13;2.92;;;1.35;;
11447;SDS011;43755;49.736;8.734;2022-12-29T06:44:14;2.45;;;1.33;;
11447;SDS011;43755;49.736;8.734;2022-12-29T06:46:16;1.70;;;1.40;;
11447;SDS011;43755;49.736;8.734;2022-12-29T06:48:17;1.48;;;1.38;;
11447;SDS011;43755;49.736;8.734;2022-12-29T06:50:20;1.98;;;1.60;;
11447;SDS011;43755;49.736;8.734;2022-12-29T06:52:21;2.13;;;1.50;;
11447;SDS011;43755;49.736;8.734;2022-12-29T06:54:24;2.40;;;1.27;;
11447;SDS011;43755;49.736;8.734;2022-12-29T06:56:25;1.42;;;1.33;;
11447;SDS011;43755;49.736;8.734;2022-12-29T06:58:26;2.85;;;1.60;;
11447;SDS011;43755;49.736;8.734;2022-12-29T07:00:28;3.75;;;1.50;;
11447;SDS011;43755;49.736;8.734;2022-12-29T07:02:29;1.85;;;1.50;;
11447;SDS011;43755;49.736;8.734;2022-12-29T07:04:31;2.15;;;1.38;;
11447;SDS011;43755;49.736;8.734;2022-12-29T07:06:33;1.60;;;1.50;;
11447;SDS011;43755;49.736;8.734;2022-12-29T07:08:35;2.20;;;1.35;;
11447;SDS011;43755;49.736;8.734;2022-12-29T07:10:36;2.88;;;1.33;;
11447;SDS011;43755;49.736;8.734;2022-12-29T07:12:38;1.88;;;1.20;;
11447;SDS011;43755;49.736;8.734;2022-12-29T07:14:39;2.33;;;1.58;;
11447;SDS011;43755;49.736;8.734;2022-12-29T07:16:40;2.67;;;1.48;;
11447;SDS011;43755;49.736;8.734;2022-12-29T07:18:42;1.73;;;1.50;;
11447;SDS011;43755;49.736;8.734;2022-12-29T07:20:43;1.42;;;1.30;;
11447;SDS011;43755;49.736;8.734;2022-12-29T07:22:46;2.20;;;1.63;;
11447;SDS011;43755;49.736;8.734;2022-12-29T07:24:48;1.58;;;1.45;;
11447;SDS011;43755;49.736;8.734;2022-12-29T07:26:49;1.58;;;1.23;;
11447;SDS011;43755;49.736;8.734;2022-12-29T07:28:51;3.92;;;1.30;;
11447;SDS011;43755;49.736;8.734;2022-12-29T07:30:52;1.88;;;1.50;;
11447;SDS011;43755;49.736;8.734;2022-12-29T07:32:54;2.08;;;1.50;;
11447;SDS011;43755;49.736;8.734;2022-12-29T07:34:55;1.95;;;1.55;;
11447;SDS011;43755;49.736;8.734;2022-12-29T07:36:57;4.80;;;1.45;;
11447;SDS011;43755;49.736;8.734;2022-12-29T07:38:59;2.10;;;1.35;;
11447;SDS011;43755;49.736;8.734;2022-12-29T07:41:01;1.85;;;1.50;;
11447;SDS011;43755;49.736;8.734;2022-12-29T07:43:02;1.50;;;1.33;;
11447;SDS011;43755;49.736;8.734;2022-12-29T07:45:04;2.50;;;1.50;;
11447;SDS011;43755;49.736;8.734;2022-12-29T07:47:06;2.22;;;1.75;;
11447;SDS011;43755;49.736;8.734;2022-12-29T07:49:08;1.50;;;1.40;;
11447;SDS011;43755;49.736;8.734;2022-12-29T07:51:09;2.45;;;1.48;;
11447;SDS011;43755;49.736;8.734;2022-12-29T07:53:11;2.45;;;1.65;;
11447;SDS011;43755;49.736;8.734;2022-12-29T07:55:13;2.08;;;1.60;;
11447;SDS011;43755;49.736;8.734;2022-12-29T07:57:15;2.45;;;1.20;;
11447;SDS011;43755;49.736;8.734;2022-12-29T07:59:16;1.70;;;1.33;;
11447;SDS011;43755;49.736;8.734;2022-12-29T08:01:18;4.80;;;1.67;;
11447;SDS011;43755;49.736;8.734;2022-12-29T08:03:20;1.70;;;1.60;;
11447;SDS011;43755;49.736;8.734;2022-12-29T08:05:22;1.60;;;1.48;;
11447;SDS011;43755;49.736;8.734;2022-12-29T08:07:24;1.55;;;1.40;;
11447;SDS011;43755;49.736;8.734;2022-12-29T08:09:25;2.90;;;1.60;;
11447;SDS011;43755;49.736;8.734;2022-12-29T08:11:28;2.25;;;1.55;;
11447;SDS011;43755;49.736;8.734;2022-12-29T08:13:29;2.53;;;1.70;;
11447;SDS011;43755;49.736;8.734;2022-12-29T08:15:31;1.50;;;1.40;;
11447;SDS011;43755;49.736;8.734;2022-12-29T08:17:32;2.03;;;1.42;;
11447;SDS011;43755;49.736;8.734;2022-12-29T08:19:33;3.03;;;1.60;;
11447;SDS011;43755;49.736;8.734;2022-12-29T08:21:35;2.38;;;1.60;;
11447;SDS011;43755;49.736;8.734;2022-12-29T08:23:36;2.63;;;1.77;;
11447;SDS011;43755;49.736;8.734;2022-12-29T08:25:38;2.10;;;1.80;;
11447;SDS011;43755;49.736;8.734;2022-12-29T08:27:40;2.17;;;1.50;;
11447;SDS011;43755;49.736;8.734;2022-12-29T08:29:42;2.13;;;1.55;;
11447;SDS011;43755;49.736;8.734;2022-12-29T08:31:43;3.50;;;1.42;;
11447;SDS011;43755;49.736;8.734;2022-12-29T08:33:45;2.33;;;1.65;;
11447;SDS011;43755;49.736;8.734;2022-12-29T08:35:46;2.88;;;1.80;;
11447;SDS011;43755;49.736;8.734;2022-12-29T08:37:48;1.92;;;1.58;;
11447;SDS011;43755;49.736;8.734;2022-12-29T08:39:50;2.13;;;1.60;;
11447;SDS011;43755;49.736;8.734;2022-12-29T08:41:51;1.67;;;1.58;;
11447;SDS011;43755;49.736;8.734;2022-12-29T08:43:54;2.60;;;1.83;;
11447;SDS011;43755;49.736;8.734;2022-12-29T08:45:56;2.08;;;1.70;;
11447;SDS011;43755;49.736;8.734;2022-12-29T08:47:58;3.33;;;1.50;;
11447;SDS011;43755;49.736;8.734;2022-12-29T08:49:59;2.45;;;1.70;;
11447;SDS011;43755;49.736;8.734;2022-12-29T08:52:01;1.65;;;1.55;;
11447;SDS011;43755;49.736;8.734;2022-12-29T08:54:02;2.67;;;1.65;;
11447;SDS011;43755;49.736;8.734;2022-12-29T08:56:04;1.90;;;1.42;;
11447;SDS011;43755;49.736;8.734;2022-12-29T08:58:06;2.58;;;1.67;;
11447;SDS011;43755;49.736;8.734;2022-12-29T09:00:10;1.60;;;1.50;;
11447;SDS011;43755;49.736;8.734;2022-12-29T09:02:12;1.70;;;1.60;;
11447;SDS011;43755;49.736;8.734;2022-12-29T09:04:13;2.67;;;1.60;;
11447;SDS011;43755;49.736;8.734;2022-12-29T09:06:15;1.63;;;1.50;;
11447;SDS011;43755;49.736;8.734;2022-12-29T09:08:17;3.70;;;1.40;;
11447;SDS011;43755;49.736;8.734;2022-12-29T09:10:19;2.65;;;1.80;;
11447;SDS011;43755;49.736;8.734;2022-12-29T09:12:20;1.80;;;1.60;;
11447;SDS011;43755;49.736;8.734;2022-12-29T09:14:21;2.65;;;1.90;;
11447;SDS011;43755;49.736;8.734;2022-12-29T09:16:24;2.25;;;1.88;;
11447;SDS011;43755;49.736;8.734;2022-12-29T09:18:26;3.60;;;1.70;;
11447;SDS011;43755;49.736;8.734;2022-12-29T09:20:28;2.13;;;1.70;;
11447;SDS011;43755;49.736;8.734;2022-12-29T09:22:29;2.35;;;1.60;;
11447;SDS011;43755;49.736;8.734;2022-12-29T09:24:31;4.05;;;1.63;;
11447;SDS011;43755;49.736;8.734;2022-12-29T09:26:32;3.00;;;1.90;;
11447;SDS011;43755;49.736;8.734;2022-12-29T09:28:33;3.40;;;1.80;;
11447;SDS011;43755;49.736;8.734;2022-12-29T09:30:35;2.90;;;1.60;;
11447;SDS011;43755;49.736;8.734;2022-12-29T09:32:37;2.47;;;1.77;;
11447;SDS011;43755;49.736;8.734;2022-12-29T09:34:39;2.47;;;1.60;;
11447;SDS011;43755;49.736;8.734;2022-12-29T09:36:41;1.65;;;1.55;;
11447;SDS011;43755;49.736;8.734;2022-12-29T09:38:42;3.45;;;1.50;;
11447;SDS011;43755;49.736;8.734;2022-12-29T09:40:44;2.08;;;1.75;;
11447;SDS011;43755;49.736;8.734;2022-12-29T09:42:52;2.13;;;1.77;;
11447;SDS011;43755;49.736;8.734;2022-12-29T09:45:04;2.08;;;1.88;;
11447;SDS011;43755;49.736;8.734;2022-12-29T09:47:13;2.85;;;1.85;;
11447;SDS011;43755;49.736;8.734;2022-12-29T09:49:21;2.33;;;1.80;;
11447;SDS011;43755;49.736;8.734;2022-12-29T09:51:28;3.85;;;2.00;;
11447;SDS011;43755;49.736;8.734;2022-12-29T09:53:34;4.53;;;2.10;;
11447;SDS011;43755;49.736;8.734;2022-12-29T09:55:40;2.25;;;1.98;;
11447;SDS011;43755;49.736;8.734;2022-12-29T09:57:47;3.65;;;2.10;;
11447;SDS011;43755;49.736;8.734;2022-12-29T09:59:54;2.00;;;1.80;;
11447;SDS011;43755;49.736;8.734;2022-12-29T10:02:03;3.30;;;2.00;;
11447;SDS011;43755;49.736;8.734;2022-12-29T10:04:13;1.92;;;1.73;;
11447;SDS011;43755;49.736;8.734;2022-12-29T10:06:17;4.60;;;1.80;;
11447;SDS011;43755;49.736;8.734;2022-12-29T10:08:27;4.35;;;1.75;;
11447;SDS011;43755;49.736;8.734;2022-12-29T10:10:37;1.90;;;1.70;;
11447;SDS011;43755;49.736;8.734;2022-12-29T10:12:46;1.60;;;1.50;;
11447;SDS011;43755;49.736;8.734;2022-12-29T10:15:02;1.90;;;1.80;;
11447;SDS011;43755;49.736;8.734;2022-12-29T10:17:12;3.92;;;1.70;;
11447;SDS011;43755;49.736;8.734;2022-12-29T10:19:28;2.55;;;1.70;;
11447;SDS011;43755;49.736;8.734;2022-12-29T10:21:47;2.88;;;1.92;;
11447;SDS011;43755;49.736;8.734;2022-12-29T10:24:01;3.17;;;1.95;;
11447;SDS011;43755;49.736;8.734;2022-12-29T10:26:08;2.95;;;1.65;;
11447;SDS011;43755;49.736;8.734;2022-12-29T10:28:15;3.15;;;1.80;;
11447;SDS011;43755;49.736;8.734;2022-12-29T10:30:21;2.28;;;1.63;;
11447;SDS011;43755;49.736;8.734;2022-12-29T10:32:27;2.65;;;1.70;;
11447;SDS011;43755;49.736;8.734;2022-12-29T10:34:34;1.48;;;1.38;;
11447;SDS011;43755;49.736;8.734;2022-12-29T10:36:39;2.65;;;1.65;;
11447;SDS011;43755;49.736;8.734;2022-12-29T10:38:47;1.60;;;1.50;;
11447;SDS011;43755;49.736;8.734;2022-12-29T10:40:57;2.40;;;1.70;;
11447;SDS011;43755;49.736;8.734;2022-12-29T10:43:01;1.67;;;1.50;;
11447;SDS011;43755;49.736;8.734;2022-12-29T10:45:14;2.75;;;1.90;;
11447;SDS011;43755;49.736;8.734;2022-12-29T10:47:18;1.70;;;1.60;;
11447;SDS011;43755;49.736;8.734;2022-12-29T10:49:22;1.80;;;1.70;;
11447;SDS011;43755;49.736;8.734;2022-12-29T10:51:28;2.17;;;1.50;;
11447;SDS011;43755;49.736;8.734;2022-12-29T10:53:33;2.25;;;2.05;;
11447;SDS011;43755;49.736;8.734;2022-12-29T10:55:40;1.92;;;1.73;;
11447;SDS011;43755;49.736;8.734;2022-12-29T10:57:43;1.88;;;1.65;;
11447;SDS011;43755;49.736;8.734;2022-12-29T10:59:46;2.28;;;2.08;;
11447;SDS011;43755;49.736;8.734;2022-12-29T11:01:50;4.05;;;2.20;;
11447;SDS011;43755;49.736;8.734;2022-12-29T11:04:00;2.40;;;1.98;;
11447;SDS011;43755;49.736;8.734;2022-12-29T11:06:06;4.97;;;2.40;;
11447;SDS011;43755;49.736;8.734;2022-12-29T11:08:12;4.32;;;2.13;;
11447;SDS011;43755;49.736;8.734;2022-12-29T11:10:17;2.53;;;1.88;;
11447;SDS011;43755;49.736;8.734;2022-12-29T11:12:24;2.58;;;1.80;;
11447;SDS011;43755;49.736;8.734;2022-12-29T11:14:28;1.65;;;1.25;;
11447;SDS011;43755;49.736;8.734;2022-12-29T11:16:31;1.40;;;1.30;;
11447;SDS011;43755;49.736;8.734;2022-12-29T11:18:35;2.45;;;1.40;;
11447;SDS011;43755;49.736;8.734;2022-12-29T11:20:38;2.03;;;1.60;;
11447;SDS011;43755;49.736;8.734;2022-12-29T11:22:43;3.40;;;2.00;;
11447;SDS011;43755;49.736;8.734;2022-12-29T11:24:45;2.03;;;1.83;;
11447;SDS011;43755;49.736;8.734;2022-12-29T11:26:49;2.30;;;2.10;;
11447;SDS011;43755;49.736;8.734;2022-12-29T11:31:21;3.35;;;1.80;;
11447;SDS011;43755;49.736;8.734;2022-12-29T11:33:23;1.90;;;1.80;;
11447;SDS011;43755;49.736;8.734;2022-12-29T11:35:32;1.98;;;1.85;;
11447;SDS011;43755;49.736;8.734;2022-12-29T11:37:36;5.30;;;2.08;;
11447;SDS011;43755;49.736;8.734;2022-12-29T11:39:40;2.97;;;2.10;;
11447;SDS011;43755;49.736;8.734;2022-12-29T11:41:50;1.98;;;1.88;;
11447;SDS011;43755;49.736;8.734;2022-12-29T11:43:53;2.65;;;2.00;;
11447;SDS011;43755;49.736;8.734;2022-12-29T11:45:59;2.15;;;1.40;;
11447;SDS011;43755;49.736;8.734;2022-12-29T11:48:06;1.83;;;1.73;;
11447;SDS011;43755;49.736;8.734;2022-12-29T11:50:16;1.88;;;1.58;;
11447;SDS011;43755;49.736;8.734;2022-12-29T11:52:21;2.40;;;1.65;;
11447;SDS011;43755;49.736;8.734;2022-12-29T11:54:25;4.60;;;1.90;;
11447;SDS011;43755;49.736;8.734;2022-12-29T11:56:33;2.20;;;1.70;;
11447;SDS011;43755;49.736;8.734;2022-12-29T11:58:38;2.00;;;1.90;;
11447;SDS011;43755;49.736;8.734;2022-12-29T12:00:39;2.22;;;1.88;;
11447;SDS011;43755;49.736;8.734;2022-12-29T12:02:44;2.80;;;1.90;;
11447;SDS011;43755;49.736;8.734;2022-12-29T12:04:53;1.80;;;1.70;;
11447;SDS011;43755;49.736;8.734;2022-12-29T12:07:02;2.00;;;1.80;;
11447;SDS011;43755;49.736;8.734;2022-12-29T12:09:14;1.60;;;1.50;;
11447;SDS011;43755;49.736;8.734;2022-12-29T12:11:24;2.45;;;1.38;;
11447;SDS011;43755;49.736;8.734;2022-12-29T12:13:33;4.65;;;1.45;;
11447;SDS011;43755;49.736;8.734;2022-12-29T12:15:40;3.45;;;1.75;;
11447;SDS011;43755;49.736;8.734;2022-12-29T12:17:49;2.13;;;1.38;;
11447;SDS011;43755;49.736;8.734;2022-12-29T12:20:03;2.95;;;1.50;;
11447;SDS011;43755;49.736;8.734;2022-12-29T12:22:16;1.00;;;1.00;;
11447;SDS011;43755;49.736;8.734;2022-12-29T12:24:33;1.35;;;1.20;;
11447;SDS011;43755;49.736;8.734;2022-12-29T12:26:39;2.13;;;1.40;;
11447;SDS011;43755;49.736;8.734;2022-12-29T12:28:48;2.25;;;1.13;;
11447;SDS011;43755;49.736;8.734;2022-12-29T12:30:55;3.42;;;1.50;;
11447;SDS011;43755;49.736;8.734;2022-12-29T12:33:03;1.70;;;1.60;;
11447;SDS011;43755;49.736;8.734;2022-12-29T12:35:07;1.35;;;1.25;;
11447;SDS011;43755;49.736;8.734;2022-12-29T12:37:23;1.90;;;1.70;;
11447;SDS011;43755;49.736;8.734;2022-12-29T12:39:38;1.95;;;1.38;;